Time;durP1;ratioP1;P1;durP2;ratioP2;P2;SDS_P1;SDS_P2;PMS_P1;PMS_P2;Temp;Humidity;BMP_temperature;BMP_pressure;BME280_temperature;BME280_humidity;BME280_pressure;Samples;Min_cycle;Max_cycle;Signal;HPM_P1;HPM_P2
2020/12/31 00:00:30;;;;;;;33.22;3.85;;;;;;;;;;5051110;28;20051;-51
2020/12/31 00:02:57;;;;;;;34.17;5.43;;;;;;;;;;5040712;28;20469;-55
2020/12/31 00:05:24;;;;;;;27.60;5.22;;;;;;;;;;5038310;28;20021;-46
2020/12/31 00:07:51;;;;;;;25.05;3.13;;;;;;;;;;5050561;28;20025;-49
2020/12/31 00:10:18;;;;;;;56.83;6.25;;;;;;;;;;5038470;28;20119;-57
2020/12/31 00:12:45;;;;;;;53.50;5.88;;;;;;;;;;5044831;28;20025;-49
2020/12/31 00:15:12;;;;;;;66.55;6.90;;;;;;;;;;5043844;28;20037;-50
2020/12/31 00:17:39;;;;;;;68.20;6.22;;;;;;;;;;5042604;28;20014;-48
2020/12/31 00:20:07;;;;;;;84.50;8.38;;;;;;;;;;5048492;28;20116;-47
2020/12/31 00:22:34;;;;;;;66.95;6.30;;;;;;;;;;5045927;28;20036;-48
2020/12/31 00:25:01;;;;;;;94.18;9.02;;;;;;;;;;5044371;28;20036;-47
2020/12/31 00:27:28;;;;;;;55.22;6.10;;;;;;;;;;5048024;28;20523;-47
2020/12/31 00:29:55;;;;;;;127.82;11.82;;;;;;;;;;5047945;28;20050;-47
2020/12/31 00:32:22;;;;;;;367.65;29.35;;;;;;;;;;5045580;28;20029;-45
2020/12/31 00:34:49;;;;;;;241.40;19.20;;;;;;;;;;5044498;28;20099;-45
2020/12/31 00:37:16;;;;;;;298.80;23.02;;;;;;;;;;5043289;28;20069;-47
2020/12/31 00:39:43;;;;;;;313.20;24.05;;;;;;;;;;5038733;28;20033;-45
2020/12/31 00:42:10;;;;;;;147.02;13.07;;;;;;;;;;5042032;28;20032;-52
2020/12/31 00:44:37;;;;;;;107.07;11.25;;;;;;;;;;5042224;28;20053;-46
2020/12/31 00:47:04;;;;;;;107.85;11.13;;;;;;;;;;5043786;28;20495;-50
2020/12/31 00:49:31;;;;;;;156.45;15.98;;;;;;;;;;5041721;28;20100;-45
2020/12/31 00:51:58;;;;;;;227.57;21.42;;;;;;;;;;5044589;28;20056;-46
2020/12/31 00:54:25;;;;;;;164.13;16.92;;;;;;;;;;5046333;28;20060;-47
2020/12/31 00:56:52;;;;;;;223.65;22.52;;;;;;;;;;5045570;28;20480;-46
2020/12/31 00:59:18;;;;;;;148.02;18.38;;;;;;;;;;5043237;28;20582;-46
2020/12/31 01:01:45;;;;;;;120.13;15.75;;;;;;;;;;5043226;28;20032;-46
2020/12/31 01:04:12;;;;;;;100.25;15.30;;;;;;;;;;5047142;28;20029;-46
2020/12/31 01:06:39;;;;;;;91.60;16.90;;;;;;;;;;5044916;28;20020;-45
2020/12/31 01:09:09;;;;;;;98.55;15.32;;;;;;;;;;5051038;28;20035;-45
2020/12/31 01:11:37;;;;;;;103.13;14.25;;;;;;;;;;5044084;28;20021;-45
2020/12/31 01:14:05;;;;;;;155.55;18.05;;;;;;;;;;5049698;28;20025;-45
2020/12/31 01:16:32;;;;;;;95.05;15.48;;;;;;;;;;5048322;28;20041;-48
2020/12/31 01:18:59;;;;;;;111.05;15.35;;;;;;;;;;5052290;28;20044;-46
2020/12/31 01:21:27;;;;;;;108.13;19.10;;;;;;;;;;5052246;28;20037;-45
2020/12/31 01:23:54;;;;;;;98.25;17.95;;;;;;;;;;5046068;28;20022;-45
2020/12/31 01:26:31;;;;;;;111.68;18.40;;;;;;;;;;5048707;28;20037;-47
2020/12/31 01:28:59;;;;;;;115.03;20.33;;;;;;;;;;5050926;28;20114;-43
2020/12/31 01:31:26;;;;;;;95.20;18.17;;;;;;;;;;5051271;28;20025;-45
2020/12/31 01:33:53;;;;;;;75.05;16.88;;;;;;;;;;5040416;28;20532;-42
2020/12/31 01:36:20;;;;;;;86.93;16.63;;;;;;;;;;5045183;28;20029;-43
2020/12/31 01:38:47;;;;;;;97.78;20.27;;;;;;;;;;5048653;28;20048;-42
2020/12/31 01:41:15;;;;;;;100.45;19.85;;;;;;;;;;5047309;28;20047;-43
2020/12/31 01:43:42;;;;;;;130.55;25.05;;;;;;;;;;5043236;28;20083;-42
2020/12/31 01:46:12;;;;;;;116.07;26.38;;;;;;;;;;5047553;28;20026;-42
2020/12/31 01:48:42;;;;;;;194.48;28.77;;;;;;;;;;5049143;28;20358;-43
2020/12/31 01:51:09;;;;;;;151.80;23.38;;;;;;;;;;5048487;28;20041;-43
2020/12/31 01:53:36;;;;;;;202.68;28.98;;;;;;;;;;5048515;28;20169;-43
2020/12/31 01:56:04;;;;;;;306.70;36.65;;;;;;;;;;5047373;28;20563;-44
2020/12/31 01:58:31;;;;;;;223.73;31.08;;;;;;;;;;5048438;28;20048;-41
2020/12/31 02:00:58;;;;;;;176.32;29.35;;;;;;;;;;5043101;28;20025;-42
2020/12/31 02:03:25;;;;;;;150.88;22.85;;;;;;;;;;5047962;28;20013;-42
2020/12/31 02:05:52;;;;;;;129.80;21.88;;;;;;;;;;5049125;28;20032;-43
2020/12/31 02:08:19;;;;;;;135.95;21.45;;;;;;;;;;5051430;28;20024;-44
2020/12/31 02:10:46;;;;;;;135.15;24.08;;;;;;;;;;5046786;28;20079;-46
2020/12/31 02:13:13;;;;;;;98.18;19.35;;;;;;;;;;5044474;28;20021;-42
2020/12/31 02:15:40;;;;;;;92.80;16.85;;;;;;;;;;5047976;28;20048;-44
2020/12/31 02:18:07;;;;;;;93.13;16.92;;;;;;;;;;5048843;28;20017;-50
2020/12/31 02:20:34;;;;;;;103.10;17.50;;;;;;;;;;5045982;28;20033;-44
2020/12/31 02:23:01;;;;;;;97.93;14.25;;;;;;;;;;5047479;28;20029;-48
2020/12/31 02:25:32;;;;;;;82.72;17.50;;;;;;;;;;5046946;28;20041;-44
2020/12/31 02:27:59;;;;;;;82.55;15.93;;;;;;;;;;5042813;28;20431;-50
2020/12/31 02:30:26;;;;;;;81.22;17.65;;;;;;;;;;5047877;28;20490;-45
2020/12/31 02:32:53;;;;;;;92.57;17.70;;;;;;;;;;5049648;28;20036;-47
2020/12/31 02:35:20;;;;;;;72.38;15.27;;;;;;;;;;5044094;28;20033;-46
2020/12/31 02:37:47;;;;;;;83.13;15.57;;;;;;;;;;5049799;28;20094;-45
2020/12/31 02:40:13;;;;;;;80.28;13.07;;;;;;;;;;5048510;28;20033;-45
2020/12/31 02:42:40;;;;;;;75.00;12.88;;;;;;;;;;5042723;28;20036;-45
2020/12/31 02:45:07;;;;;;;76.13;11.82;;;;;;;;;;5034781;28;20018;-43
2020/12/31 02:47:38;;;;;;;58.30;9.23;;;;;;;;;;5040999;28;20044;-45
2020/12/31 02:50:05;;;;;;;64.05;9.15;;;;;;;;;;5045328;28;20049;-42
2020/12/31 02:52:32;;;;;;;50.78;8.85;;;;;;;;;;5046303;28;20049;-44
2020/12/31 02:54:59;;;;;;;37.20;6.57;;;;;;;;;;5045748;28;20041;-45
2020/12/31 02:57:26;;;;;;;40.15;7.30;;;;;;;;;;5046933;28;20021;-46
2020/12/31 02:59:53;;;;;;;44.47;6.07;;;;;;;;;;5025210;28;20044;-44
2020/12/31 03:02:20;;;;;;;24.55;5.32;;;;;;;;;;5043132;28;20066;-42
2020/12/31 03:04:47;;;;;;;32.72;4.57;;;;;;;;;;5042254;28;20032;-46
2020/12/31 03:07:15;;;;;;;24.95;3.97;;;;;;;;;;5046151;28;20020;-43
2020/12/31 03:09:42;;;;;;;21.70;3.08;;;;;;;;;;5045454;28;20354;-44
2020/12/31 03:12:09;;;;;;;35.03;3.55;;;;;;;;;;5045813;28;20033;-46
2020/12/31 03:14:36;;;;;;;17.73;2.58;;;;;;;;;;5044716;28;20063;-45
2020/12/31 03:17:03;;;;;;;18.83;2.90;;;;;;;;;;5044091;28;20086;-44
2020/12/31 03:19:30;;;;;;;11.63;2.53;;;;;;;;;;5048529;28;20469;-44
2020/12/31 03:21:57;;;;;;;14.10;2.30;;;;;;;;;;5042105;28;20033;-45
2020/12/31 03:24:24;;;;;;;17.13;2.65;;;;;;;;;;5048385;28;20025;-47
2020/12/31 03:26:51;;;;;;;22.98;3.42;;;;;;;;;;5040739;28;20082;-49
2020/12/31 03:29:18;;;;;;;17.80;3.50;;;;;;;;;;5049208;28;20104;-39
2020/12/31 03:31:45;;;;;;;21.60;3.65;;;;;;;;;;5041625;28;20033;-41
2020/12/31 03:34:12;;;;;;;27.10;3.25;;;;;;;;;;5044742;28;20036;-41
2020/12/31 03:36:39;;;;;;;26.83;3.55;;;;;;;;;;5042705;28;20040;-43
2020/12/31 03:39:06;;;;;;;51.30;5.20;;;;;;;;;;5036725;28;20025;-41
2020/12/31 03:41:32;;;;;;;57.13;5.10;;;;;;;;;;5038493;28;20021;-45
2020/12/31 03:43:59;;;;;;;29.40;3.28;;;;;;;;;;5034396;28;20060;-45
2020/12/31 03:46:26;;;;;;;36.03;3.95;;;;;;;;;;5044873;28;20025;-41
2020/12/31 03:48:53;;;;;;;28.38;3.17;;;;;;;;;;5034792;28;20116;-48
2020/12/31 03:51:20;;;;;;;34.85;3.58;;;;;;;;;;5050080;28;20041;-41
2020/12/31 03:53:47;;;;;;;28.38;3.80;;;;;;;;;;5041977;28;20025;-41
2020/12/31 03:56:14;;;;;;;51.58;5.20;;;;;;;;;;5035156;28;20037;-41
2020/12/31 03:58:41;;;;;;;48.92;5.82;;;;;;;;;;5042120;28;20494;-40
2020/12/31 04:01:08;;;;;;;24.13;4.90;;;;;;;;;;5040420;28;20025;-41
2020/12/31 04:03:35;;;;;;;18.42;3.28;;;;;;;;;;5044217;28;20028;-42
2020/12/31 04:06:02;;;;;;;38.95;4.15;;;;;;;;;;5038095;28;20033;-42
2020/12/31 04:08:29;;;;;;;25.77;4.85;;;;;;;;;;5042930;28;20070;-47
2020/12/31 04:10:57;;;;;;;25.33;4.22;;;;;;;;;;5041734;28;20492;-44
2020/12/31 04:13:24;;;;;;;31.63;3.63;;;;;;;;;;5042764;28;20032;-43
2020/12/31 04:15:51;;;;;;;30.60;4.45;;;;;;;;;;5039550;28;20449;-42
2020/12/31 04:18:18;;;;;;;24.92;3.28;;;;;;;;;;5046090;28;20377;-43
2020/12/31 04:20:45;;;;;;;32.20;3.50;;;;;;;;;;5037306;28;20021;-43
2020/12/31 04:23:12;;;;;;;40.63;4.22;;;;;;;;;;5036075;28;20071;-46
2020/12/31 04:25:39;;;;;;;51.92;5.18;;;;;;;;;;5031925;28;20041;-47
2020/12/31 04:28:06;;;;;;;51.00;5.80;;;;;;;;;;5031882;28;20029;-45
2020/12/31 04:30:33;;;;;;;38.85;3.28;;;;;;;;;;5048384;28;20524;-45
2020/12/31 04:33:00;;;;;;;29.95;2.85;;;;;;;;;;5044599;28;20109;-48
2020/12/31 04:35:27;;;;;;;28.33;3.00;;;;;;;;;;5034176;28;20046;-51
2020/12/31 04:37:54;;;;;;;22.63;2.25;;;;;;;;;;5035766;28;20018;-49
2020/12/31 04:40:21;;;;;;;25.52;3.50;;;;;;;;;;5035813;28;20083;-50
2020/12/31 04:42:51;;;;;;;57.35;5.20;;;;;;;;;;5048412;28;20047;-48
2020/12/31 04:45:20;;;;;;;50.45;6.20;;;;;;;;;;5036295;28;20032;-51
2020/12/31 04:48:07;;;;;;;41.58;3.78;;;;;;;;;;5035286;28;20053;-48
2020/12/31 04:50:35;;;;;;;37.28;3.13;;;;;;;;;;5068179;28;20024;-47
2020/12/31 04:53:06;;;;;;;25.55;3.17;;;;;;;;;;5039127;28;20500;-47
2020/12/31 04:55:40;;;;;;;31.20;2.93;;;;;;;;;;5054868;28;20073;-50
2020/12/31 04:58:11;;;;;;;20.92;2.40;;;;;;;;;;5054939;28;20021;-52
2020/12/31 05:00:39;;;;;;;15.65;1.67;;;;;;;;;;5055055;28;20025;-47
2020/12/31 05:03:06;;;;;;;14.77;1.42;;;;;;;;;;5041571;28;20100;-51
2020/12/31 05:05:33;;;;;;;12.10;1.90;;;;;;;;;;5055242;28;20028;-49
2020/12/31 05:08:01;;;;;;;8.00;1.00;;;;;;;;;;5055448;28;20025;-48
2020/12/31 05:10:29;;;;;;;9.98;1.02;;;;;;;;;;5054815;28;20100;-50
2020/12/31 05:13:03;;;;;;;8.35;0.90;;;;;;;;;;5048818;28;20026;-49
2020/12/31 05:15:33;;;;;;;6.28;1.17;;;;;;;;;;5040804;28;20090;-46
2020/12/31 05:18:17;;;;;;;12.48;1.48;;;;;;;;;;5053082;28;20428;-45
2020/12/31 05:20:46;;;;;;;9.68;1.20;;;;;;;;;;5055014;28;20033;-42
2020/12/31 05:23:17;;;;;;;8.40;1.23;;;;;;;;;;5039806;28;20028;-46
2020/12/31 05:25:44;;;;;;;1.63;0.70;;;;;;;;;;5045297;28;20030;-45
2020/12/31 05:28:28;;;;;;;10.68;1.00;;;;;;;;;;5042473;28;20104;-45
2020/12/31 05:31:02;;;;;;;3.45;1.02;;;;;;;;;;5053897;28;20032;-45
2020/12/31 05:33:33;;;;;;;2.50;0.70;;;;;;;;;;5052756;28;20017;-51
2020/12/31 05:36:26;;;;;;;4.38;1.00;;;;;;;;;;5051350;28;20252;-46
2020/12/31 05:38:56;;;;;;;3.25;0.93;;;;;;;;;;5052885;28;20036;-46
2020/12/31 05:41:23;;;;;;;5.38;1.33;;;;;;;;;;5053780;28;20067;-45
2020/12/31 05:43:54;;;;;;;4.30;1.20;;;;;;;;;;5043928;28;20477;-44
2020/12/31 05:46:22;;;;;;;4.32;1.30;;;;;;;;;;5044780;28;20087;-47
2020/12/31 05:48:58;;;;;;;5.93;1.20;;;;;;;;;;5054081;28;20033;-47
2020/12/31 05:51:28;;;;;;;3.50;1.20;;;;;;;;;;5050599;28;20473;-45
2020/12/31 05:54:05;;;;;;;3.35;1.25;;;;;;;;;;5045240;28;20091;-47
2020/12/31 05:56:33;;;;;;;6.30;1.40;;;;;;;;;;5041027;28;20406;-44
2020/12/31 05:59:07;;;;;;;4.18;1.42;;;;;;;;;;5034558;28;20386;-50
2020/12/31 06:01:38;;;;;;;2.50;1.10;;;;;;;;;;5033576;28;20026;-50
2020/12/31 06:04:22;;;;;;;4.05;1.30;;;;;;;;;;5045743;28;20039;-47
2020/12/31 06:06:58;;;;;;;2.70;1.48;;;;;;;;;;5036603;28;20033;-47
2020/12/31 06:09:32;;;;;;;2.03;1.10;;;;;;;;;;5034817;28;20036;-44
2020/12/31 06:12:01;;;;;;;2.85;1.20;;;;;;;;;;5036182;28;20026;-45
2020/12/31 06:14:28;;;;;;;6.95;1.10;;;;;;;;;;5035206;28;20367;-46
2020/12/31 06:16:57;;;;;;;6.50;1.52;;;;;;;;;;5034194;28;20096;-44
2020/12/31 06:19:33;;;;;;;5.47;1.38;;;;;;;;;;5037603;28;20048;-47
2020/12/31 06:22:10;;;;;;;3.83;1.30;;;;;;;;;;5054101;28;20083;-45
2020/12/31 06:24:40;;;;;;;8.27;1.52;;;;;;;;;;5053298;28;20153;-42
2020/12/31 06:27:09;;;;;;;6.07;1.58;;;;;;;;;;5053987;28;20577;-44
2020/12/31 06:29:54;;;;;;;4.88;1.38;;;;;;;;;;5053126;28;20029;-45
2020/12/31 06:32:26;;;;;;;2.42;1.50;;;;;;;;;;5053970;28;20025;-42
2020/12/31 06:35:04;;;;;;;6.80;1.98;;;;;;;;;;5036339;28;20735;-41
2020/12/31 06:37:31;;;;;;;5.65;1.33;;;;;;;;;;5033712;28;20024;-42
2020/12/31 06:40:31;;;;;;;3.65;1.30;;;;;;;;;;5023478;28;20481;-43
2020/12/31 06:43:01;;;;;;;3.80;1.33;;;;;;;;;;5018741;28;20485;-42
2020/12/31 06:45:44;;;;;;;17.15;2.20;;;;;;;;;;5033640;28;20029;-44
2020/12/31 06:48:10;;;;;;;;;;;;;;;;;;5033662;28;20124;-45
2020/12/31 06:50:55;;;;;;;4.30;1.10;;;;;;;;;;5042535;28;20308;-42
2020/12/31 06:53:28;;;;;;;3.35;1.10;;;;;;;;;;5052932;28;20431;-43
2020/12/31 06:55:55;;;;;;;3.35;1.45;;;;;;;;;;5052623;28;20033;-43
2020/12/31 06:58:24;;;;;;;2.58;1.10;;;;;;;;;;5052820;28;20059;-43
2020/12/31 07:00:52;;;;;;;1.08;0.82;;;;;;;;;;5052691;28;20044;-42
2020/12/31 07:03:37;;;;;;;2.35;1.13;;;;;;;;;;5049182;28;20076;-43
2020/12/31 07:06:22;;;;;;;1.70;1.05;;;;;;;;;;5033289;28;20025;-42
2020/12/31 07:08:49;;;;;;;2.25;1.00;;;;;;;;;;5031270;28;20033;-43
2020/12/31 07:11:28;;;;;;;2.85;0.98;;;;;;;;;;5033294;28;20048;-44
2020/12/31 07:13:55;;;;;;;3.45;1.40;;;;;;;;;;5040378;28;20379;-42
2020/12/31 07:16:58;;;;;;;4.82;1.02;;;;;;;;;;5051325;28;20393;-42
2020/12/31 07:19:41;;;;;;;2.97;1.05;;;;;;;;;;4991303;28;20109;-42
2020/12/31 07:22:11;;;;;;;4.05;0.95;;;;;;;;;;5047011;28;20040;-43
2020/12/31 07:24:50;;;;;;;1.92;1.20;;;;;;;;;;5039351;28;20174;-42
2020/12/31 07:27:28;;;;;;;1.63;0.98;;;;;;;;;;5032454;28;20029;-44
2020/12/31 07:30:12;;;;;;;1.85;1.00;;;;;;;;;;5032731;28;20025;-42
2020/12/31 07:32:48;;;;;;;3.50;1.40;;;;;;;;;;5032500;28;20030;-43
2020/12/31 07:35:27;;;;;;;1.73;1.15;;;;;;;;;;5050544;28;20089;-42
2020/12/31 07:37:56;;;;;;;1.70;1.20;;;;;;;;;;5052581;28;20802;-43
2020/12/31 07:40:27;;;;;;;2.92;1.08;;;;;;;;;;5052098;28;20028;-43
2020/12/31 07:42:54;;;;;;;1.77;0.95;;;;;;;;;;5050783;28;20477;-43
2020/12/31 07:45:21;;;;;;;1.75;0.80;;;;;;;;;;5033800;28;20080;-43
2020/12/31 07:47:54;;;;;;;2.88;1.20;;;;;;;;;;5032553;28;20473;-43
2020/12/31 07:50:21;;;;;;;3.20;1.15;;;;;;;;;;5045216;28;20069;-42
2020/12/31 07:52:49;;;;;;;2.70;0.98;;;;;;;;;;5052139;28;20128;-43
2020/12/31 07:55:16;;;;;;;1.52;0.90;;;;;;;;;;5034710;28;20095;-45
2020/12/31 07:57:43;;;;;;;1.50;0.85;;;;;;;;;;5032467;28;20393;-41
2020/12/31 08:00:15;;;;;;;2.92;0.98;;;;;;;;;;5032129;28;20047;-43
2020/12/31 08:02:43;;;;;;;5.28;0.98;;;;;;;;;;5032132;28;20021;-44
2020/12/31 08:05:11;;;;;;;2.65;1.00;;;;;;;;;;5048304;28;20025;-43
2020/12/31 08:07:39;;;;;;;4.18;1.50;;;;;;;;;;5052282;28;20021;-43
2020/12/31 08:10:06;;;;;;;2.78;1.48;;;;;;;;;;5050456;28;20025;-42
2020/12/31 08:12:34;;;;;;;5.53;2.10;;;;;;;;;;5051710;28;20082;-43
2020/12/31 08:15:01;;;;;;;7.55;1.80;;;;;;;;;;5037076;28;20045;-43
2020/12/31 08:17:28;;;;;;;2.78;1.52;;;;;;;;;;5031987;28;20057;-44
2020/12/31 08:19:56;;;;;;;3.97;1.42;;;;;;;;;;5031354;28;20025;-43
2020/12/31 08:22:26;;;;;;;5.13;1.15;;;;;;;;;;5032035;28;20033;-44
2020/12/31 08:25:14;;;;;;;2.50;1.10;;;;;;;;;;5045117;28;20505;-42
2020/12/31 08:27:41;;;;;;;4.93;1.30;;;;;;;;;;5051909;28;20040;-44
2020/12/31 08:30:09;;;;;;;7.20;1.20;;;;;;;;;;5051156;28;20385;-44
2020/12/31 08:32:53;;;;;;;2.15;0.90;;;;;;;;;;5051872;28;20033;-42
2020/12/31 08:35:25;;;;;;;6.18;1.40;;;;;;;;;;5034743;28;20041;-47
2020/12/31 08:38:00;;;;;;;5.00;1.00;;;;;;;;;;5031985;28;20026;-46
2020/12/31 08:40:30;;;;;;;8.30;1.13;;;;;;;;;;5041279;28;20385;-46
2020/12/31 08:42:57;;;;;;;5.40;1.27;;;;;;;;;;5051533;28;20481;-45
2020/12/31 08:45:34;;;;;;;10.05;1.95;;;;;;;;;;5034214;28;20072;-45
2020/12/31 08:48:16;;;;;;;5.88;0.93;;;;;;;;;;5030548;28;20563;-45
2020/12/31 08:50:44;;;;;;;5.22;0.70;;;;;;;;;;5041588;28;20476;-43
2020/12/31 08:53:11;;;;;;;4.22;1.10;;;;;;;;;;5070825;28;20040;-48
2020/12/31 08:55:38;;;;;;;3.42;1.00;;;;;;;;;;5050340;28;20036;-45
2020/12/31 08:58:12;;;;;;;3.75;1.05;;;;;;;;;;5051401;28;20507;-47
2020/12/31 09:00:40;;;;;;;2.72;1.08;;;;;;;;;;5043055;28;20028;-44
2020/12/31 09:03:07;;;;;;;2.50;0.85;;;;;;;;;;5031061;28;20040;-45
2020/12/31 09:05:34;;;;;;;9.63;1.02;;;;;;;;;;5049621;28;20029;-44
2020/12/31 09:08:08;;;;;;;6.85;0.98;;;;;;;;;;5051292;28;20032;-45
2020/12/31 09:10:36;;;;;;;2.88;1.30;;;;;;;;;;5042755;28;20382;-46
2020/12/31 09:13:04;;;;;;;2.50;1.20;;;;;;;;;;5031301;28;20030;-45
2020/12/31 09:15:32;;;;;;;5.38;1.08;;;;;;;;;;5048656;28;20037;-45
2020/12/31 09:17:59;;;;;;;4.95;1.25;;;;;;;;;;5051324;28;20107;-45
2020/12/31 09:20:28;;;;;;;5.35;1.10;;;;;;;;;;5049307;28;20397;-44
2020/12/31 09:23:08;;;;;;;7.28;1.15;;;;;;;;;;5055361;28;20516;-45
2020/12/31 09:25:35;;;;;;;9.07;1.73;;;;;;;;;;5037116;28;20033;-45
2020/12/31 09:28:01;;;;;;;5.28;1.60;;;;;;;;;;5035078;28;20033;-43
2020/12/31 09:30:30;;;;;;;31.95;16.38;;;;;;;;;;5034447;28;20051;-43
2020/12/31 09:32:57;;;;;;;18.60;7.55;;;;;;;;;;5035455;28;20033;-42
2020/12/31 09:35:24;;;;;;;6.20;2.15;;;;;;;;;;5050652;28;20047;-42
2020/12/31 09:37:56;;;;;;;11.48;2.30;;;;;;;;;;5054147;28;20083;-46
2020/12/31 09:40:24;;;;;;;5.60;1.98;;;;;;;;;;5054838;28;20550;-47
2020/12/31 09:42:51;;;;;;;8.95;2.83;;;;;;;;;;5034763;28;20037;-42
2020/12/31 09:45:18;;;;;;;4.50;1.40;;;;;;;;;;5049432;28;20021;-50
2020/12/31 09:47:45;;;;;;;25.20;2.55;;;;;;;;;;5054826;28;20422;-45
2020/12/31 09:50:12;;;;;;;8.85;1.10;;;;;;;;;;5052482;28;20067;-43
2020/12/31 09:52:40;;;;;;;8.05;0.73;;;;;;;;;;5034448;28;20041;-44
2020/12/31 09:55:07;;;;;;;26.23;1.67;;;;;;;;;;5047187;28;20468;-46
2020/12/31 09:57:35;;;;;;;15.02;1.00;;;;;;;;;;5054321;28;20029;-44
2020/12/31 10:00:02;;;;;;;5.60;0.68;;;;;;;;;;5053175;28;20029;-45
2020/12/31 10:02:29;;;;;;;6.63;0.55;;;;;;;;;;5034099;28;20032;-46
2020/12/31 10:04:56;;;;;;;1.95;0.40;;;;;;;;;;5045492;28;20021;-48
2020/12/31 10:07:23;;;;;;;2.30;0.40;;;;;;;;;;5038277;28;20370;-43
2020/12/31 10:09:50;;;;;;;4.53;0.30;;;;;;;;;;5034179;28;20026;-46
2020/12/31 10:12:17;;;;;;;1.33;0.38;;;;;;;;;;5034135;28;20557;-44
2020/12/31 10:14:46;;;;;;;4.63;0.50;;;;;;;;;;5042893;28;20047;-44
2020/12/31 10:17:13;;;;;;;11.52;1.00;;;;;;;;;;5040987;28;20048;-45
2020/12/31 10:19:40;;;;;;;1.75;0.40;;;;;;;;;;5033832;28;20092;-46
2020/12/31 10:22:07;;;;;;;9.63;0.70;;;;;;;;;;5034042;28;20032;-43
2020/12/31 10:24:34;;;;;;;13.38;1.40;;;;;;;;;;5041754;28;20021;-45
2020/12/31 10:27:01;;;;;;;2.55;0.47;;;;;;;;;;5043036;28;20029;-46
2020/12/31 10:29:28;;;;;;;8.27;0.63;;;;;;;;;;5032465;28;20025;-46
2020/12/31 10:31:56;;;;;;;4.53;1.00;;;;;;;;;;5032919;28;20163;-45
2020/12/31 10:34:24;;;;;;;6.57;1.52;;;;;;;;;;5039136;28;20053;-43
2020/12/31 10:36:54;;;;;;;3.20;0.80;;;;;;;;;;5044421;28;20047;-46
2020/12/31 10:39:22;;;;;;;3.55;0.70;;;;;;;;;;5033696;28;20033;-44
2020/12/31 10:41:49;;;;;;;6.22;1.10;;;;;;;;;;5043243;28;20647;-43
2020/12/31 10:44:17;;;;;;;9.98;1.38;;;;;;;;;;5048390;28;20021;-44
2020/12/31 10:46:44;;;;;;;7.43;0.88;;;;;;;;;;5041616;28;20477;-44
2020/12/31 10:49:11;;;;;;;7.47;0.60;;;;;;;;;;5053714;28;20036;-45
2020/12/31 10:51:42;;;;;;;14.90;2.33;;;;;;;;;;5043833;28;20051;-44
2020/12/31 10:54:12;;;;;;;11.25;0.60;;;;;;;;;;5036913;28;20661;-43
2020/12/31 10:56:39;;;;;;;34.20;2.40;;;;;;;;;;5045405;28;20493;-45
2020/12/31 10:59:06;;;;;;;14.50;0.90;;;;;;;;;;5033585;28;20021;-46
2020/12/31 11:01:33;;;;;;;6.20;0.77;;;;;;;;;;5033964;28;20037;-43
2020/12/31 11:04:00;;;;;;;10.15;0.70;;;;;;;;;;5033870;28;20056;-44
2020/12/31 11:06:27;;;;;;;32.90;1.88;;;;;;;;;;5046738;28;20025;-43
2020/12/31 11:08:55;;;;;;;19.15;1.55;;;;;;;;;;5033063;28;20025;-43
2020/12/31 11:11:23;;;;;;;6.78;0.47;;;;;;;;;;5032470;28;20101;-46
2020/12/31 11:13:51;;;;;;;7.93;0.52;;;;;;;;;;5033063;28;20526;-43
2020/12/31 11:16:18;;;;;;;2.25;0.30;;;;;;;;;;5036203;28;20473;-45
2020/12/31 11:18:45;;;;;;;3.72;0.60;;;;;;;;;;5053089;28;20017;-45
2020/12/31 11:21:15;;;;;;;6.13;0.50;;;;;;;;;;5049934;28;20028;-44
2020/12/31 11:23:43;;;;;;;6.82;0.60;;;;;;;;;;5052250;28;20096;-48
2020/12/31 11:26:14;;;;;;;4.55;0.65;;;;;;;;;;5033672;28;20034;-44
2020/12/31 11:28:40;;;;;;;7.78;0.88;;;;;;;;;;5032938;28;20584;-43
2020/12/31 11:31:09;;;;;;;17.25;0.68;;;;;;;;;;5034586;28;20504;-45
2020/12/31 11:33:36;;;;;;;24.20;1.77;;;;;;;;;;5052654;28;20104;-45
2020/12/31 11:36:07;;;;;;;9.43;0.70;;;;;;;;;;5034565;28;20135;-45
2020/12/31 11:38:34;;;;;;;4.82;1.08;;;;;;;;;;5032785;28;20025;-46
2020/12/31 11:41:02;;;;;;;11.48;1.48;;;;;;;;;;5032135;28;20029;-43
2020/12/31 11:43:29;;;;;;;6.38;1.08;;;;;;;;;;5032449;28;20021;-44
2020/12/31 11:45:56;;;;;;;5.53;0.90;;;;;;;;;;5048952;28;20029;-43
2020/12/31 11:48:23;;;;;;;6.03;0.50;;;;;;;;;;5052470;28;20078;-42
2020/12/31 11:50:51;;;;;;;20.08;2.33;;;;;;;;;;5052198;28;20041;-46
2020/12/31 11:53:22;;;;;;;21.52;1.80;;;;;;;;;;5032330;28;20579;-46
2020/12/31 11:55:52;;;;;;;9.57;0.35;;;;;;;;;;5046179;28;20045;-47
2020/12/31 11:58:19;;;;;;;6.60;0.85;;;;;;;;;;5037732;28;20057;-42
2020/12/31 12:00:46;;;;;;;23.05;1.73;;;;;;;;;;5035738;28;20040;-44
2020/12/31 12:03:13;;;;;;;4.38;1.20;;;;;;;;;;5042667;28;20036;-42
2020/12/31 12:05:40;;;;;;;6.50;0.43;;;;;;;;;;5048838;28;20036;-42
2020/12/31 12:08:07;;;;;;;18.52;2.15;;;;;;;;;;5050597;28;20037;-42
2020/12/31 12:10:35;;;;;;;10.63;0.80;;;;;;;;;;5050852;28;20032;-43
2020/12/31 12:13:02;;;;;;;5.75;0.88;;;;;;;;;;5032618;28;20500;-44
2020/12/31 12:15:29;;;;;;;4.13;0.47;;;;;;;;;;5043098;28;20041;-43
2020/12/31 12:17:56;;;;;;;10.50;0.90;;;;;;;;;;5039329;28;20104;-44
2020/12/31 12:20:23;;;;;;;10.77;1.25;;;;;;;;;;5041288;28;20025;-44
2020/12/31 12:22:51;;;;;;;6.97;0.70;;;;;;;;;;5045129;28;20100;-43
2020/12/31 12:25:17;;;;;;;13.85;1.50;;;;;;;;;;5041373;28;20083;-41
2020/12/31 12:27:45;;;;;;;13.48;0.50;;;;;;;;;;5048018;28;20035;-42
2020/12/31 12:30:12;;;;;;;21.65;1.65;;;;;;;;;;5044058;28;20025;-41
2020/12/31 12:32:39;;;;;;;13.80;0.98;;;;;;;;;;5041498;28;20030;-42
2020/12/31 12:35:08;;;;;;;3.53;1.08;;;;;;;;;;5044628;28;20033;-42
2020/12/31 12:37:35;;;;;;;3.45;0.30;;;;;;;;;;5042525;28;20030;-44
2020/12/31 12:40:04;;;;;;;6.30;0.75;;;;;;;;;;5051362;28;20079;-44
2020/12/31 12:42:32;;;;;;;13.07;0.70;;;;;;;;;;5050210;28;20037;-45
2020/12/31 12:45:00;;;;;;;9.15;1.13;;;;;;;;;;5048995;28;20032;-43
2020/12/31 12:47:27;;;;;;;11.27;0.70;;;;;;;;;;5046566;28;20025;-47
2020/12/31 12:49:54;;;;;;;28.20;2.08;;;;;;;;;;5047330;28;20021;-44
2020/12/31 12:52:21;;;;;;;3.78;0.45;;;;;;;;;;5048265;28;20711;-44
2020/12/31 12:54:48;;;;;;;6.45;0.80;;;;;;;;;;5046620;28;20021;-44
2020/12/31 12:57:15;;;;;;;10.73;0.85;;;;;;;;;;5053421;28;20025;-46
2020/12/31 12:59:42;;;;;;;12.60;1.25;;;;;;;;;;5049781;28;20059;-46
2020/12/31 13:02:09;;;;;;;16.80;2.15;;;;;;;;;;5051693;28;20023;-41
2020/12/31 13:04:36;;;;;;;3.25;0.50;;;;;;;;;;5037033;28;20107;-48
2020/12/31 13:07:03;;;;;;;9.77;0.55;;;;;;;;;;5054863;28;20062;-43
2020/12/31 13:09:30;;;;;;;21.08;1.35;;;;;;;;;;5054399;28;20439;-44
2020/12/31 13:12:00;;;;;;;20.65;2.65;;;;;;;;;;5049882;28;20056;-44
2020/12/31 13:14:27;;;;;;;14.63;1.33;;;;;;;;;;5038678;28;20033;-44
2020/12/31 13:16:55;;;;;;;19.27;1.65;;;;;;;;;;5046817;28;20036;-44
2020/12/31 13:19:23;;;;;;;12.43;0.68;;;;;;;;;;5043713;28;20040;-43
2020/12/31 13:21:59;;;;;;;22.00;1.52;;;;;;;;;;5046747;28;20060;-47
2020/12/31 13:24:26;;;;;;;15.02;2.17;;;;;;;;;;5045378;28;20029;-43
2020/12/31 13:26:53;;;;;;;8.68;1.23;;;;;;;;;;5050634;28;20013;-41
2020/12/31 13:29:21;;;;;;;18.42;1.60;;;;;;;;;;5039630;28;20033;-47
2020/12/31 13:31:48;;;;;;;61.38;4.90;;;;;;;;;;5048193;28;20039;-42
2020/12/31 13:34:15;;;;;;;33.30;2.47;;;;;;;;;;5042790;28;20029;-43
2020/12/31 13:36:42;;;;;;;14.27;1.15;;;;;;;;;;5048413;28;20048;-41
2020/12/31 13:39:09;;;;;;;57.50;2.72;;;;;;;;;;5044161;28;20020;-45
2020/12/31 13:41:36;;;;;;;47.92;3.35;;;;;;;;;;5047992;28;20017;-45
2020/12/31 13:44:04;;;;;;;19.05;1.50;;;;;;;;;;5045377;28;20052;-46
2020/12/31 13:46:31;;;;;;;26.65;1.38;;;;;;;;;;5043546;28;20032;-44
2020/12/31 13:48:58;;;;;;;22.52;1.92;;;;;;;;;;5044580;28;20591;-44
2020/12/31 13:51:26;;;;;;;12.70;1.02;;;;;;;;;;5048091;28;20060;-46
2020/12/31 13:53:53;;;;;;;32.38;1.92;;;;;;;;;;5051962;28;20522;-44
2020/12/31 13:56:20;;;;;;;28.83;1.92;;;;;;;;;;5048554;28;20086;-44
2020/12/31 13:58:47;;;;;;;22.15;1.30;;;;;;;;;;5052403;28;20556;-45
2020/12/31 14:01:16;;;;;;;39.17;3.20;;;;;;;;;;5041913;28;20389;-44
2020/12/31 14:03:43;;;;;;;20.73;1.33;;;;;;;;;;5049315;28;20025;-47
2020/12/31 14:06:10;;;;;;;54.10;3.60;;;;;;;;;;5041575;28;20040;-45
2020/12/31 14:08:37;;;;;;;26.30;1.83;;;;;;;;;;5050434;28;20088;-46
2020/12/31 14:11:04;;;;;;;66.78;3.00;;;;;;;;;;5051613;28;20104;-45
2020/12/31 14:13:31;;;;;;;43.88;2.70;;;;;;;;;;5046417;28;20033;-47
2020/12/31 14:15:58;;;;;;;25.65;2.65;;;;;;;;;;5038050;28;20059;-43
2020/12/31 14:18:25;;;;;;;43.63;2.58;;;;;;;;;;5047993;28;20017;-47
2020/12/31 14:20:52;;;;;;;62.03;5.72;;;;;;;;;;5048071;28;20032;-43
2020/12/31 14:23:19;;;;;;;44.90;5.07;;;;;;;;;;5051783;28;20009;-43
2020/12/31 14:25:46;;;;;;;27.67;4.00;;;;;;;;;;5052150;28;20100;-46
2020/12/31 14:28:15;;;;;;;47.08;3.75;;;;;;;;;;5053245;28;20469;-45
2020/12/31 14:30:42;;;;;;;23.13;1.77;;;;;;;;;;5053120;28;20044;-43
2020/12/31 14:33:09;;;;;;;6.68;0.93;;;;;;;;;;5052883;28;20108;-42
2020/12/31 14:35:36;;;;;;;13.15;0.90;;;;;;;;;;5052850;28;20105;-43
2020/12/31 14:38:03;;;;;;;11.25;0.90;;;;;;;;;;5052658;28;20029;-44
2020/12/31 14:40:30;;;;;;;17.33;1.00;;;;;;;;;;5052818;28;20025;-44
2020/12/31 14:42:57;;;;;;;13.75;1.30;;;;;;;;;;5053047;28;20100;-42